sensor_id;sensor_type;location;lat;lon;timestamp;pressure;altitude;pressure_sealevel;temperature;humidity
75420;BME280;63998;52.488;13.428;2023-04-25T00:02:24;100072.19;;;8.63;66.72
75420;BME280;63998;52.488;13.428;2023-04-25T00:04:49;100070.47;;;8.57;66.63
75420;BME280;63998;52.488;13.428;2023-04-25T00:07:15;100067.00;;;8.57;66.14
75420;BME280;63998;52.488;13.428;2023-04-25T00:09:41;100066.16;;;8.58;65.92
75420;BME280;63998;52.488;13.428;2023-04-25T00:12:09;100081.66;;;8.56;66.22
75420;BME280;63998;52.488;13.428;2023-04-25T00:14:34;100064.41;;;8.54;65.73
75420;BME280;63998;52.488;13.428;2023-04-25T00:17:00;100067.00;;;8.54;65.65
75420;BME280;63998;52.488;13.428;2023-04-25T00:19:29;100073.03;;;8.57;65.65
75420;BME280;63998;52.488;13.428;2023-04-25T00:21:57;100063.56;;;8.55;65.15
75420;BME280;63998;52.488;13.428;2023-04-25T00:24:25;100067.00;;;8.54;64.97
75420;BME280;63998;52.488;13.428;2023-04-25T00:26:51;100060.09;;;8.56;64.31
75420;BME280;63998;52.488;13.428;2023-04-25T00:29:16;100072.19;;;8.54;64.75
75420;BME280;63998;52.488;13.428;2023-04-25T00:31:41;100069.59;;;8.57;64.65
75420;BME280;63998;52.488;13.428;2023-04-25T00:34:07;100072.19;;;8.63;64.28
75420;BME280;63998;52.488;13.428;2023-04-25T00:36:33;100082.53;;;8.63;64.20
75420;BME280;63998;52.488;13.428;2023-04-25T00:38:58;100061.84;;;8.63;64.64
75420;BME280;63998;52.488;13.428;2023-04-25T00:41:26;100060.94;;;8.69;64.31
75420;BME280;63998;52.488;13.428;2023-04-25T00:43:53;100059.22;;;8.66;64.56
75420;BME280;63998;52.488;13.428;2023-04-25T00:46:19;100060.09;;;8.68;64.31
75420;BME280;63998;52.488;13.428;2023-04-25T00:48:45;100057.50;;;8.73;64.20
75420;BME280;63998;52.488;13.428;2023-04-25T00:51:13;100059.22;;;8.74;64.38
75420;BME280;63998;52.488;13.428;2023-04-25T00:53:40;100056.66;;;8.57;64.49
75420;BME280;63998;52.488;13.428;2023-04-25T00:56:06;100066.16;;;8.50;64.98
75420;BME280;63998;52.488;13.428;2023-04-25T00:58:32;100056.66;;;8.54;65.31
75420;BME280;63998;52.488;13.428;2023-04-25T01:00:57;100075.66;;;8.50;65.66
75420;BME280;63998;52.488;13.428;2023-04-25T01:03:23;100068.75;;;8.52;65.52
75420;BME280;63998;52.488;13.428;2023-04-25T01:05:49;100057.53;;;8.60;65.11
75420;BME280;63998;52.488;13.428;2023-04-25T01:08:17;100060.09;;;8.56;65.25
75420;BME280;63998;52.488;13.428;2023-04-25T01:10:43;100051.47;;;8.60;65.30
75420;BME280;63998;52.488;13.428;2023-04-25T01:13:08;100046.31;;;8.60;65.12
75420;BME280;63998;52.488;13.428;2023-04-25T01:15:34;100042.84;;;8.64;65.14
75420;BME280;63998;52.488;13.428;2023-04-25T01:18:03;100042.81;;;8.67;64.63
75420;BME280;63998;52.488;13.428;2023-04-25T01:20:28;100042.84;;;8.58;64.92
75420;BME280;63998;52.488;13.428;2023-04-25T01:22:54;100042.00;;;8.62;65.20
75420;BME280;63998;52.488;13.428;2023-04-25T01:25:23;100048.03;;;8.61;65.13
75420;BME280;63998;52.488;13.428;2023-04-25T01:27:51;100039.41;;;8.59;64.94
75420;BME280;63998;52.488;13.428;2023-04-25T01:30:17;100035.09;;;8.52;65.08
75420;BME280;63998;52.488;13.428;2023-04-25T01:32:42;100042.84;;;8.55;65.04
75420;BME280;63998;52.488;13.428;2023-04-25T01:35:10;100034.25;;;8.53;64.84
75420;BME280;63998;52.488;13.428;2023-04-25T01:37:40;100035.09;;;8.50;64.97
75420;BME280;63998;52.488;13.428;2023-04-25T01:40:10;100045.44;;;8.59;64.90
75420;BME280;63998;52.488;13.428;2023-04-25T01:42:38;100041.13;;;8.57;65.08
75420;BME280;63998;52.488;13.428;2023-04-25T01:45:04;100049.75;;;8.56;65.02
75420;BME280;63998;52.488;13.428;2023-04-25T01:47:30;100048.03;;;8.52;65.41
75420;BME280;63998;52.488;13.428;2023-04-25T01:49:55;100048.03;;;8.52;65.24
75420;BME280;63998;52.488;13.428;2023-04-25T01:52:21;100042.84;;;8.58;65.00
75420;BME280;63998;52.488;13.428;2023-04-25T01:54:46;100053.22;;;8.61;64.91
75420;BME280;63998;52.488;13.428;2023-04-25T01:57:13;100046.31;;;8.60;64.72
75420;BME280;63998;52.488;13.428;2023-04-25T01:59:41;100042.00;;;8.50;65.09
75420;BME280;63998;52.488;13.428;2023-04-25T02:02:09;100046.31;;;8.51;65.34
75420;BME280;63998;52.488;13.428;2023-04-25T02:04:35;100049.78;;;8.50;64.86
75420;BME280;63998;52.488;13.428;2023-04-25T02:07:03;100054.09;;;8.51;65.38
75420;BME280;63998;52.488;13.428;2023-04-25T02:09:28;100051.50;;;8.48;64.98
75420;BME280;63998;52.488;13.428;2023-04-25T02:11:57;100056.69;;;8.39;64.97
75420;BME280;63998;52.488;13.428;2023-04-25T02:14:22;100054.09;;;8.34;65.52
75420;BME280;63998;52.488;13.428;2023-04-25T02:16:48;100046.31;;;8.36;65.42
75420;BME280;63998;52.488;13.428;2023-04-25T02:19:13;100050.63;;;8.34;65.71
75420;BME280;63998;52.488;13.428;2023-04-25T02:21:41;100048.06;;;8.37;65.59
75420;BME280;63998;52.488;13.428;2023-04-25T02:24:06;100051.50;;;8.39;65.65
75420;BME280;63998;52.488;13.428;2023-04-25T02:26:32;100048.06;;;8.37;65.76
75420;BME280;63998;52.488;13.428;2023-04-25T02:28:57;100055.78;;;8.41;65.51
75420;BME280;63998;52.488;13.428;2023-04-25T02:31:23;100051.50;;;8.36;65.49
75420;BME280;63998;52.488;13.428;2023-04-25T02:33:51;100048.03;;;8.43;65.58
75420;BME280;63998;52.488;13.428;2023-04-25T02:36:19;100048.91;;;8.34;65.86
75420;BME280;63998;52.488;13.428;2023-04-25T02:38:44;100052.34;;;8.44;65.50
75420;BME280;63998;52.488;13.428;2023-04-25T02:41:12;100050.63;;;8.47;65.60
75420;BME280;63998;52.488;13.428;2023-04-25T02:43:37;100060.09;;;8.44;65.33
75420;BME280;63998;52.488;13.428;2023-04-25T02:46:03;100055.81;;;8.40;65.47
75420;BME280;63998;52.488;13.428;2023-04-25T02:48:28;100045.47;;;8.38;65.90
75420;BME280;63998;52.488;13.428;2023-04-25T02:50:54;100042.88;;;8.40;65.97
75420;BME280;63998;52.488;13.428;2023-04-25T02:53:19;100042.00;;;8.35;65.77
75420;BME280;63998;52.488;13.428;2023-04-25T02:55:45;100046.28;;;8.29;66.27
75420;BME280;63998;52.488;13.428;2023-04-25T02:58:10;100033.34;;;8.22;66.26
75420;BME280;63998;52.488;13.428;2023-04-25T03:00:36;100041.13;;;8.33;66.48
75420;BME280;63998;52.488;13.428;2023-04-25T03:03:01;100044.59;;;8.38;66.29
75420;BME280;63998;52.488;13.428;2023-04-25T03:05:26;100044.59;;;8.38;65.73
75420;BME280;63998;52.488;13.428;2023-04-25T03:07:52;100047.19;;;8.33;65.77
75420;BME280;63998;52.488;13.428;2023-04-25T03:10:17;100040.25;;;8.27;65.86
75420;BME280;63998;52.488;13.428;2023-04-25T03:12:42;100040.25;;;8.27;65.75
75420;BME280;63998;52.488;13.428;2023-04-25T03:15:08;100032.47;;;8.30;65.76
75420;BME280;63998;52.488;13.428;2023-04-25T03:17:38;100047.13;;;8.30;66.05
75420;BME280;63998;52.488;13.428;2023-04-25T03:20:04;100048.88;;;8.29;66.18
75420;BME280;63998;52.488;13.428;2023-04-25T03:22:30;100041.13;;;8.33;65.85
75420;BME280;63998;52.488;13.428;2023-04-25T03:24:58;100058.38;;;8.27;66.46
75420;BME280;63998;52.488;13.428;2023-04-25T03:27:23;100044.53;;;8.28;66.34
75420;BME280;63998;52.488;13.428;2023-04-25T03:29:53;100050.63;;;8.32;66.38
75420;BME280;63998;52.488;13.428;2023-04-25T03:32:18;100039.41;;;8.32;65.90
75420;BME280;63998;52.488;13.428;2023-04-25T03:34:44;100046.31;;;8.36;65.87
75420;BME280;63998;52.488;13.428;2023-04-25T03:37:11;100047.13;;;8.16;66.57
75420;BME280;63998;52.488;13.428;2023-04-25T03:39:36;100050.59;;;8.20;66.34
75420;BME280;63998;52.488;13.428;2023-04-25T03:42:03;100054.91;;;8.22;66.43
75420;BME280;63998;52.488;13.428;2023-04-25T03:44:28;100049.75;;;8.25;66.26
75420;BME280;63998;52.488;13.428;2023-04-25T03:46:54;100071.28;;;8.30;66.13
75420;BME280;63998;52.488;13.428;2023-04-25T03:49:19;100053.19;;;8.21;66.17
75420;BME280;63998;52.488;13.428;2023-04-25T03:51:45;100048.88;;;8.22;66.81
75420;BME280;63998;52.488;13.428;2023-04-25T03:54:12;100056.66;;;8.26;66.64
75420;BME280;63998;52.488;13.428;2023-04-25T03:56:37;100048.03;;;8.27;66.19
75420;BME280;63998;52.488;13.428;2023-04-25T03:59:05;100063.53;;;8.15;66.83
75420;BME280;63998;52.488;13.428;2023-04-25T04:01:31;100056.63;;;8.17;67.22
75420;BME280;63998;52.488;13.428;2023-04-25T04:03:58;100061.81;;;8.11;66.63
75420;BME280;63998;52.488;13.428;2023-04-25T04:06:26;100076.47;;;8.14;66.82
75420;BME280;63998;52.488;13.428;2023-04-25T04:08:51;100066.97;;;8.17;66.70
75420;BME280;63998;52.488;13.428;2023-04-25T04:11:17;100065.25;;;8.13;66.76
75420;BME280;63998;52.488;13.428;2023-04-25T04:13:45;100068.72;;;8.24;67.29
75420;BME280;63998;52.488;13.428;2023-04-25T04:16:10;100073.88;;;8.24;66.81
75420;BME280;63998;52.488;13.428;2023-04-25T04:18:37;100068.72;;;8.27;66.92
75420;BME280;63998;52.488;13.428;2023-04-25T04:21:03;100072.16;;;8.14;67.15
75420;BME280;63998;52.488;13.428;2023-04-25T04:23:29;100072.16;;;8.20;66.72
75420;BME280;63998;52.488;13.428;2023-04-25T04:25:54;100072.16;;;8.20;67.06
75420;BME280;63998;52.488;13.428;2023-04-25T04:28:20;100075.59;;;8.21;66.87
75420;BME280;63998;52.488;13.428;2023-04-25T04:30:47;100079.03;;;8.09;66.89
75420;BME280;63998;52.488;13.428;2023-04-25T04:33:12;100079.03;;;8.06;67.60
75420;BME280;63998;52.488;13.428;2023-04-25T04:35:38;100080.78;;;8.13;67.38
75420;BME280;63998;52.488;13.428;2023-04-25T04:38:04;100077.34;;;8.14;67.72
75420;BME280;63998;52.488;13.428;2023-04-25T04:40:29;100079.91;;;8.14;67.10
75420;BME280;63998;52.488;13.428;2023-04-25T04:42:56;100087.66;;;8.20;67.42
75420;BME280;63998;52.488;13.428;2023-04-25T04:45:25;100085.09;;;8.22;67.03
75420;BME280;63998;52.488;13.428;2023-04-25T04:47:52;100080.78;;;8.22;67.35
75420;BME280;63998;52.488;13.428;2023-04-25T04:50:20;100085.97;;;8.25;66.72
75420;BME280;63998;52.488;13.428;2023-04-25T04:52:48;100089.41;;;8.30;66.92
75420;BME280;63998;52.488;13.428;2023-04-25T04:55:13;100091.13;;;8.28;67.10
75420;BME280;63998;52.488;13.428;2023-04-25T04:57:41;100087.72;;;8.33;66.77
75420;BME280;63998;52.488;13.428;2023-04-25T05:00:09;100099.78;;;8.27;67.17
75420;BME280;63998;52.488;13.428;2023-04-25T05:02:38;100088.53;;;8.22;66.84
75420;BME280;63998;52.488;13.428;2023-04-25T05:05:05;100096.28;;;8.28;67.19
75420;BME280;63998;52.488;13.428;2023-04-25T05:07:35;100095.47;;;8.33;67.24
75420;BME280;63998;52.488;13.428;2023-04-25T05:10:03;100102.41;;;8.38;66.96
75420;BME280;63998;52.488;13.428;2023-04-25T05:12:28;100103.25;;;8.33;66.71
75420;BME280;63998;52.488;13.428;2023-04-25T05:14:54;100101.53;;;8.35;66.89
75420;BME280;63998;52.488;13.428;2023-04-25T05:17:19;100104.97;;;8.37;66.54
75420;BME280;63998;52.488;13.428;2023-04-25T05:19:46;100095.44;;;8.26;67.37
75420;BME280;63998;52.488;13.428;2023-04-25T05:22:14;100098.06;;;8.33;67.07
75420;BME280;63998;52.488;13.428;2023-04-25T05:24:40;100106.69;;;8.35;67.30
75420;BME280;63998;52.488;13.428;2023-04-25T05:27:05;100106.72;;;8.39;67.42
75420;BME280;63998;52.488;13.428;2023-04-25T05:29:33;100111.00;;;8.48;66.98
75420;BME280;63998;52.488;13.428;2023-04-25T05:32:00;100105.84;;;8.51;66.74
75420;BME280;63998;52.488;13.428;2023-04-25T05:34:28;100103.25;;;8.57;67.05
75420;BME280;63998;52.488;13.428;2023-04-25T05:36:56;100103.25;;;8.45;66.68
75420;BME280;63998;52.488;13.428;2023-04-25T05:39:23;100108.41;;;8.57;67.50
75420;BME280;63998;52.488;13.428;2023-04-25T05:41:51;100110.16;;;8.58;66.49
75420;BME280;63998;52.488;13.428;2023-04-25T05:44:16;100106.72;;;8.53;66.71
75420;BME280;63998;52.488;13.428;2023-04-25T05:46:44;100123.97;;;8.48;67.05
75420;BME280;63998;52.488;13.428;2023-04-25T05:49:10;100115.34;;;8.40;67.30
75420;BME280;63998;52.488;13.428;2023-04-25T05:51:35;100121.38;;;8.51;67.16
75420;BME280;63998;52.488;13.428;2023-04-25T05:54:03;100127.41;;;8.44;67.19
75420;BME280;63998;52.488;13.428;2023-04-25T05:56:28;100117.06;;;8.47;67.38
75420;BME280;63998;52.488;13.428;2023-04-25T05:58:54;100132.59;;;8.53;66.87
75420;BME280;63998;52.488;13.428;2023-04-25T06:01:24;100129.13;;;8.51;67.16
75420;BME280;63998;52.488;13.428;2023-04-25T06:03:49;100134.31;;;8.39;67.65
75420;BME280;63998;52.488;13.428;2023-04-25T06:06:16;100134.31;;;8.39;68.06
75420;BME280;63998;52.488;13.428;2023-04-25T06:08:42;100142.94;;;8.38;67.90
75420;BME280;63998;52.488;13.428;2023-04-25T06:11:07;100130.84;;;8.37;68.09
75420;BME280;63998;52.488;13.428;2023-04-25T06:13:39;100136.03;;;8.55;68.53
75420;BME280;63998;52.488;13.428;2023-04-25T06:16:05;100146.41;;;8.52;67.90
75420;BME280;63998;52.488;13.428;2023-04-25T06:18:33;100148.13;;;8.50;67.64
75420;BME280;63998;52.488;13.428;2023-04-25T06:21:00;100141.19;;;8.55;67.94
75420;BME280;63998;52.488;13.428;2023-04-25T06:23:26;100149.84;;;8.72;67.83
75420;BME280;63998;52.488;13.428;2023-04-25T06:25:53;100136.91;;;8.75;67.59
75420;BME280;63998;52.488;13.428;2023-04-25T06:28:21;100147.25;;;8.84;67.65
75420;BME280;63998;52.488;13.428;2023-04-25T06:30:51;100152.41;;;8.80;67.04
75420;BME280;63998;52.488;13.428;2023-04-25T06:33:19;100148.13;;;8.74;67.05
75420;BME280;63998;52.488;13.428;2023-04-25T06:35:45;100142.94;;;8.71;67.85
75420;BME280;63998;52.488;13.428;2023-04-25T06:38:13;100148.13;;;8.74;67.41
75420;BME280;63998;52.488;13.428;2023-04-25T06:40:38;100151.59;;;8.76;67.45
75420;BME280;63998;52.488;13.428;2023-04-25T06:43:05;100144.63;;;8.92;67.64
75420;BME280;63998;52.488;13.428;2023-04-25T06:45:33;100152.44;;;8.74;67.24
75420;BME280;63998;52.488;13.428;2023-04-25T06:47:58;100141.22;;;8.70;67.95
75420;BME280;63998;52.488;13.428;2023-04-25T06:50:24;100148.13;;;8.60;68.31
75420;BME280;63998;52.488;13.428;2023-04-25T06:52:54;100148.09;;;8.56;68.88
75420;BME280;63998;52.488;13.428;2023-04-25T06:55:19;100142.09;;;8.61;68.53
75420;BME280;63998;52.488;13.428;2023-04-25T06:57:45;100148.13;;;8.74;68.31
75420;BME280;63998;52.488;13.428;2023-04-25T07:00:11;100150.72;;;8.88;68.46
75420;BME280;63998;52.488;13.428;2023-04-25T07:02:36;100142.06;;;8.92;67.87
75420;BME280;63998;52.488;13.428;2023-04-25T07:05:04;100148.97;;;8.96;67.70
75420;BME280;63998;52.488;13.428;2023-04-25T07:07:32;100144.66;;;8.93;67.64
75420;BME280;63998;52.488;13.428;2023-04-25T07:09:57;100148.09;;;8.98;67.51
75420;BME280;63998;52.488;13.428;2023-04-25T07:12:25;100159.31;;;8.81;67.81
75420;BME280;63998;52.488;13.428;2023-04-25T07:14:53;100153.28;;;8.98;68.08
75420;BME280;63998;52.488;13.428;2023-04-25T07:17:18;100158.44;;;9.05;67.71
75420;BME280;63998;52.488;13.428;2023-04-25T07:19:43;100164.50;;;9.07;67.57
75420;BME280;63998;52.488;13.428;2023-04-25T07:22:08;100166.22;;;9.09;67.05
75420;BME280;63998;52.488;13.428;2023-04-25T07:24:37;100187.78;;;9.17;67.59
75420;BME280;63998;52.488;13.428;2023-04-25T07:27:02;100180.88;;;9.21;67.85
75420;BME280;63998;52.488;13.428;2023-04-25T07:29:28;100190.41;;;9.00;68.28
75420;BME280;63998;52.488;13.428;2023-04-25T07:31:53;100176.59;;;8.85;68.21
75420;BME280;63998;52.488;13.428;2023-04-25T07:34:19;100182.63;;;8.70;68.21
75420;BME280;63998;52.488;13.428;2023-04-25T07:36:46;100194.72;;;8.68;68.40
75420;BME280;63998;52.488;13.428;2023-04-25T07:39:12;100187.81;;;8.70;68.71
75420;BME280;63998;52.488;13.428;2023-04-25T07:41:37;100203.34;;;8.58;68.59
75420;BME280;63998;52.488;13.428;2023-04-25T07:44:02;100198.16;;;8.49;68.55
75420;BME280;63998;52.488;13.428;2023-04-25T07:46:30;100189.50;;;8.41;69.29
75420;BME280;63998;52.488;13.428;2023-04-25T07:48:56;100199.84;;;8.44;68.98
75420;BME280;63998;52.488;13.428;2023-04-25T07:51:21;100197.31;;;8.51;68.71
75420;BME280;63998;52.488;13.428;2023-04-25T07:53:49;100204.22;;;8.60;68.17
75420;BME280;63998;52.488;13.428;2023-04-25T07:56:14;100207.69;;;8.76;67.96
75420;BME280;63998;52.488;13.428;2023-04-25T07:58:40;100205.94;;;8.82;66.27
75420;BME280;63998;52.488;13.428;2023-04-25T08:01:05;100209.38;;;8.90;64.62
75420;BME280;63998;52.488;13.428;2023-04-25T08:03:30;100213.72;;;8.99;63.89
75420;BME280;63998;52.488;13.428;2023-04-25T08:05:56;100216.31;;;9.07;63.39
75420;BME280;63998;52.488;13.428;2023-04-25T08:08:24;100209.38;;;9.22;63.99
75420;BME280;63998;52.488;13.428;2023-04-25T08:10:53;100239.63;;;9.25;62.20
75420;BME280;63998;52.488;13.428;2023-04-25T08:13:19;100224.94;;;9.25;60.33
75420;BME280;63998;52.488;13.428;2023-04-25T08:15:47;100222.34;;;9.21;59.09
75420;BME280;63998;52.488;13.428;2023-04-25T08:18:12;100232.69;;;9.18;57.73
75420;BME280;63998;52.488;13.428;2023-04-25T08:20:38;100223.22;;;9.08;57.40
75420;BME280;63998;52.488;13.428;2023-04-25T08:23:03;100234.44;;;9.22;57.62
75420;BME280;63998;52.488;13.428;2023-04-25T08:25:31;100231.00;;;9.26;58.09
75420;BME280;63998;52.488;13.428;2023-04-25T08:27:56;100227.50;;;9.42;58.06
75420;BME280;63998;52.488;13.428;2023-04-25T08:30:22;100238.66;;;9.71;58.16
75420;BME280;63998;52.488;13.428;2023-04-25T08:32:47;100230.88;;;9.75;57.45
75420;BME280;63998;52.488;13.428;2023-04-25T08:35:12;100246.38;;;9.96;57.95
75420;BME280;63998;52.488;13.428;2023-04-25T08:37:38;100242.88;;;10.06;56.50
75420;BME280;63998;52.488;13.428;2023-04-25T08:40:06;100244.63;;;9.98;55.30
75420;BME280;63998;52.488;13.428;2023-04-25T08:42:37;100248.06;;;10.12;55.96
75420;BME280;63998;52.488;13.428;2023-04-25T08:45:03;100265.31;;;10.16;53.65
75420;BME280;63998;52.488;13.428;2023-04-25T08:47:29;100261.84;;;10.14;53.69
75420;BME280;63998;52.488;13.428;2023-04-25T08:49:56;100265.34;;;10.13;53.34
75420;BME280;63998;52.488;13.428;2023-04-25T08:52:22;100262.72;;;10.18;53.10
75420;BME280;63998;52.488;13.428;2023-04-25T08:54:49;100268.81;;;10.03;52.45
75420;BME280;63998;52.488;13.428;2023-04-25T08:57:15;100267.13;;;9.96;52.66
75420;BME280;63998;52.488;13.428;2023-04-25T08:59:40;100267.13;;;9.96;50.58
75420;BME280;63998;52.488;13.428;2023-04-25T09:02:11;100264.50;;;10.05;49.79
75420;BME280;63998;52.488;13.428;2023-04-25T09:04:39;100260.16;;;10.04;49.56
75420;BME280;63998;52.488;13.428;2023-04-25T09:07:08;100274.88;;;10.03;49.33
75420;BME280;63998;52.488;13.428;2023-04-25T09:09:33;100290.47;;;10.00;47.77
75420;BME280;63998;52.488;13.428;2023-04-25T09:11:58;100278.34;;;10.04;48.00
75420;BME280;63998;52.488;13.428;2023-04-25T09:14:24;100291.28;;;10.19;47.51
75420;BME280;63998;52.488;13.428;2023-04-25T09:19:22;100285.06;;;10.52;47.23
75420;BME280;63998;52.488;13.428;2023-04-25T09:21:53;100277.19;;;10.72;47.10
75420;BME280;63998;52.488;13.428;2023-04-25T09:24:43;100282.28;;;10.87;46.61
75420;BME280;63998;52.488;13.428;2023-04-25T09:27:12;100287.41;;;10.96;46.57
75420;BME280;63998;52.488;13.428;2023-04-25T09:29:39;100302.94;;;11.02;45.63
75420;BME280;63998;52.488;13.428;2023-04-25T09:34:45;100297.66;;;11.14;45.31
75420;BME280;63998;52.488;13.428;2023-04-25T09:37:20;100307.28;;;11.06;45.04
75420;BME280;63998;52.488;13.428;2023-04-25T09:39:50;100294.16;;;11.23;45.71
75420;BME280;63998;52.488;13.428;2023-04-25T09:42:16;100295.75;;;11.38;44.56
75420;BME280;63998;52.488;13.428;2023-04-25T09:44:46;100303.59;;;11.33;44.44
75420;BME280;63998;52.488;13.428;2023-04-25T09:47:15;100302.19;;;10.90;44.46
75420;BME280;63998;52.488;13.428;2023-04-25T09:49:43;100297.88;;;10.87;44.96
75420;BME280;63998;52.488;13.428;2023-04-25T09:52:13;100296.06;;;10.98;45.13
75420;BME280;63998;52.488;13.428;2023-04-25T09:54:39;100303.78;;;11.12;44.89
75420;BME280;63998;52.488;13.428;2023-04-25T09:57:11;100296.69;;;11.32;44.43
75420;BME280;63998;52.488;13.428;2023-04-25T09:59:44;100319.03;;;11.50;43.86
75420;BME280;63998;52.488;13.428;2023-04-25T10:02:10;100307.66;;;11.63;42.59
75420;BME280;63998;52.488;13.428;2023-04-25T10:04:40;100305.91;;;11.65;42.13
75420;BME280;63998;52.488;13.428;2023-04-25T10:07:07;100309.28;;;11.79;42.70
75420;BME280;63998;52.488;13.428;2023-04-25T10:09:34;100310.16;;;11.77;41.51
75420;BME280;63998;52.488;13.428;2023-04-25T10:12:02;100306.03;;;11.53;41.62
75420;BME280;63998;52.488;13.428;2023-04-25T10:14:31;100311.25;;;11.50;42.18
75420;BME280;63998;52.488;13.428;2023-04-25T10:16:57;100313.81;;;11.56;42.68
75420;BME280;63998;52.488;13.428;2023-04-25T10:19:24;100327.81;;;11.40;41.64
75420;BME280;63998;52.488;13.428;2023-04-25T10:22:07;100317.28;;;11.55;41.03
75420;BME280;63998;52.488;13.428;2023-04-25T10:24:35;100331.25;;;11.42;41.02
75420;BME280;63998;52.488;13.428;2023-04-25T10:27:04;100332.28;;;11.23;40.76
75420;BME280;63998;52.488;13.428;2023-04-25T10:29:33;100334.22;;;10.90;40.27
75420;BME280;63998;52.488;13.428;2023-04-25T10:31:58;100323.88;;;10.81;41.18
75420;BME280;63998;52.488;13.428;2023-04-25T10:34:41;100325.75;;;10.58;41.11
75420;BME280;63998;52.488;13.428;2023-04-25T10:37:10;100324.81;;;10.69;41.43
75420;BME280;63998;52.488;13.428;2023-04-25T10:39:40;100358.69;;;10.47;42.00
75420;BME280;63998;52.488;13.428;2023-04-25T10:42:06;100322.41;;;10.16;42.74
75420;BME280;63998;52.488;13.428;2023-04-25T10:44:33;100331.03;;;10.36;43.21
75420;BME280;63998;52.488;13.428;2023-04-25T10:47:00;100327.50;;;10.53;43.16
75420;BME280;63998;52.488;13.428;2023-04-25T10:49:41;100334.34;;;10.75;42.40
75420;BME280;63998;52.488;13.428;2023-04-25T10:54:54;100335.94;;;10.97;42.25
75420;BME280;63998;52.488;13.428;2023-04-25T11:02:30;100361.28;;;10.39;41.86
75420;BME280;63998;52.488;13.428;2023-04-25T11:04:59;100367.44;;;10.24;42.58
75420;BME280;63998;52.488;13.428;2023-04-25T11:07:58;100354.44;;;10.11;42.82
75420;BME280;63998;52.488;13.428;2023-04-25T11:12:52;100347.50;;;10.34;43.46
75420;BME280;63998;52.488;13.428;2023-04-25T11:15:17;100346.56;;;10.47;42.70
75420;BME280;63998;52.488;13.428;2023-04-25T11:17:45;100361.28;;;10.42;43.62
75420;BME280;63998;52.488;13.428;2023-04-25T11:20:15;100357.81;;;10.44;42.87
75420;BME280;63998;52.488;13.428;2023-04-25T11:22:44;100353.44;;;10.62;43.28
75420;BME280;63998;52.488;13.428;2023-04-25T11:25:11;100375.94;;;10.61;42.22
75420;BME280;63998;52.488;13.428;2023-04-25T11:27:50;100372.50;;;10.55;43.12
75420;BME280;63998;52.488;13.428;2023-04-25T11:30:19;100384.66;;;10.47;43.27
75420;BME280;63998;52.488;13.428;2023-04-25T11:32:47;100387.28;;;10.37;42.86
75420;BME280;63998;52.488;13.428;2023-04-25T11:35:13;100394.22;;;10.34;42.77
75420;BME280;63998;52.488;13.428;2023-04-25T11:37:42;100393.38;;;10.21;41.67
75420;BME280;63998;52.488;13.428;2023-04-25T11:40:08;100389.91;;;10.22;41.09
75420;BME280;63998;52.488;13.428;2023-04-25T11:42:43;100389.03;;;10.17;40.68
75420;BME280;63998;52.488;13.428;2023-04-25T11:45:08;100412.38;;;10.14;39.38
75420;BME280;63998;52.488;13.428;2023-04-25T11:47:37;100403.72;;;10.15;39.38
75420;BME280;63998;52.488;13.428;2023-04-25T11:50:05;100404.59;;;10.17;39.32
75420;BME280;63998;52.488;13.428;2023-04-25T11:52:37;100398.53;;;10.27;39.42
75420;BME280;63998;52.488;13.428;2023-04-25T11:55:12;100406.34;;;10.38;39.16
75420;BME280;63998;52.488;13.428;2023-04-25T11:57:39;100408.91;;;10.15;38.79
75420;BME280;63998;52.488;13.428;2023-04-25T12:00:16;100396.84;;;10.08;38.66
75420;BME280;63998;52.488;13.428;2023-04-25T12:02:44;100396.81;;;10.29;39.58
75420;BME280;63998;52.488;13.428;2023-04-25T12:05:11;100397.69;;;10.10;39.55
75420;BME280;63998;52.488;13.428;2023-04-25T12:07:36;100398.56;;;10.04;40.21
75420;BME280;63998;52.488;13.428;2023-04-25T12:10:11;100410.69;;;10.25;40.06
75420;BME280;63998;52.488;13.428;2023-04-25T12:12:43;100408.03;;;10.50;40.12
75420;BME280;63998;52.488;13.428;2023-04-25T12:15:14;100400.16;;;10.65;39.67
75420;BME280;63998;52.488;13.428;2023-04-25T12:17:45;100412.31;;;10.63;39.35
75420;BME280;63998;52.488;13.428;2023-04-25T12:20:15;100401.81;;;10.87;40.62
75420;BME280;63998;52.488;13.428;2023-04-25T12:22:42;100411.16;;;11.20;41.55
75420;BME280;63998;52.488;13.428;2023-04-25T12:25:13;100411.97;;;11.27;39.43
75420;BME280;63998;52.488;13.428;2023-04-25T12:28:17;100410.28;;;11.23;38.39
75420;BME280;63998;52.488;13.428;2023-04-25T12:31:04;100410.22;;;11.32;37.01
75420;BME280;63998;52.488;13.428;2023-04-25T12:33:32;100410.16;;;11.41;36.21
75420;BME280;63998;52.488;13.428;2023-04-25T12:35:58;100432.69;;;11.39;36.12
75420;BME280;63998;52.488;13.428;2023-04-25T12:38:31;100412.75;;;11.41;35.92
75420;BME280;63998;52.488;13.428;2023-04-25T12:41:00;100439.66;;;11.37;35.44
75420;BME280;63998;52.488;13.428;2023-04-25T12:43:26;100409.94;;;11.68;36.73
75420;BME280;63998;52.488;13.428;2023-04-25T12:45:53;100415.06;;;11.83;35.65
75420;BME280;63998;52.488;13.428;2023-04-25T12:48:19;100407.66;;;12.34;36.37
75420;BME280;63998;52.488;13.428;2023-04-25T12:50:45;100440.69;;;12.26;36.42
75420;BME280;63998;52.488;13.428;2023-04-25T12:53:13;100415.19;;;11.64;36.87
75420;BME280;63998;52.488;13.428;2023-04-25T12:55:39;100418.09;;;11.13;37.39
75420;BME280;63998;52.488;13.428;2023-04-25T12:58:05;100425.84;;;11.26;38.71
75420;BME280;63998;52.488;13.428;2023-04-25T13:00:33;100431.03;;;11.26;37.97
75420;BME280;63998;52.488;13.428;2023-04-25T13:03:00;100429.34;;;11.22;37.89
75420;BME280;63998;52.488;13.428;2023-04-25T13:05:26;100460.53;;;11.25;37.97